Time;durP1;ratioP1;P1;durP2;ratioP2;P2;SDS_P1;SDS_P2;PMS_P1;PMS_P2;Temp;Humidity;BMP_temperature;BMP_pressure;BME280_temperature;BME280_humidity;BME280_pressure;Samples;Min_cycle;Max_cycle;Signal;HPM_P1;HPM_P2
2023/06/20 00:01:47;;;;;;;13.18;11.25;;;18.60;96.90;;;;;;5049874;28;20040;-52
2023/06/20 00:04:12;;;;;;;12.85;11.07;;;18.50;96.80;;;;;;5057465;28;20037;-52
2023/06/20 00:06:38;;;;;;;;;;;18.40;97.40;;;;;;5055263;28;20033;-54
2023/06/20 00:09:04;;;;;;;12.60;11.07;;;18.40;98.20;;;;;;5053072;28;19928;-56
2023/06/20 00:11:29;;;;;;;15.60;11.60;;;18.40;97.80;;;;;;5069912;28;20056;-52
2023/06/20 00:13:55;;;;;;;14.77;11.27;;;18.40;98.30;;;;;;5070866;28;20048;-53
2023/06/20 00:16:20;;;;;;;13.63;9.93;;;18.40;98.10;;;;;;5055959;28;20498;-55
2023/06/20 00:18:53;;;;;;;;;;;18.40;98.50;;;;;;5053695;28;20037;-54
2023/06/20 00:21:20;;;;;;;12.63;10.63;;;18.30;99.70;;;;;;5053675;28;20282;-53
2023/06/20 00:23:46;;;;;;;13.15;11.52;;;18.30;99.40;;;;;;5054255;28;20040;-53
2023/06/20 00:26:11;;;;;;;12.52;10.55;;;18.20;99.80;;;;;;5064139;28;20107;-52
2023/06/20 00:28:37;;;;;;;14.93;11.20;;;18.20;99.80;;;;;;5052550;28;20060;-52
2023/06/20 00:31:02;;;;;;;14.90;11.27;;;18.20;99.90;;;;;;5059055;28;20494;-55
2023/06/20 00:33:28;;;;;;;15.43;10.32;;;18.20;99.90;;;;;;5070979;28;20398;-52
2023/06/20 00:35:53;;;;;;;;;;;18.30;99.90;;;;;;5071557;28;20090;-55
2023/06/20 00:38:19;;;;;;;22.88;11.30;;;18.30;99.90;;;;;;5052824;28;20015;-53
2023/06/20 00:40:45;;;;;;;13.77;9.13;;;18.30;99.90;;;;;;5062121;28;20047;-54
2023/06/20 00:43:12;;;;;;;18.02;10.90;;;18.30;99.90;;;;;;5069274;28;20124;-52
2023/06/20 00:45:37;;;;;;;12.55;10.82;;;18.40;99.90;;;;;;5063202;28;20051;-52
2023/06/20 00:48:06;;;;;;;14.63;10.93;;;18.40;99.90;;;;;;5052474;28;20037;-53
2023/06/20 00:50:33;;;;;;;12.38;9.98;;;18.40;99.90;;;;;;5059285;28;20032;-52
2023/06/20 00:53:00;;;;;;;14.45;11.30;;;18.40;99.90;;;;;;5070835;28;20025;-53
2023/06/20 00:55:27;;;;;;;13.20;9.38;;;18.40;99.90;;;;;;5059075;28;20473;-53
2023/06/20 00:57:56;;;;;;;13.80;9.82;;;18.50;99.90;;;;;;5052369;28;20044;-54
2023/06/20 01:00:23;;;;;;;12.27;10.02;;;18.50;99.90;;;;;;5056474;28;20505;-52
2023/06/20 01:02:49;;;;;;;11.55;9.82;;;18.50;99.90;;;;;;5063127;28;20540;-52
2023/06/20 01:05:15;;;;;;;14.70;9.50;;;18.40;99.90;;;;;;5055885;28;20090;-51
2023/06/20 01:08:08;;;;;;;10.25;9.15;;;18.40;99.90;;;;;;5069014;28;20091;-55
2023/06/20 01:11:05;;;;;;;14.70;10.25;;;18.50;99.90;;;;;;5068488;28;20401;-53
2023/06/20 01:13:36;;;;;;;12.93;10.05;;;18.40;99.90;;;;;;5053192;28;20044;-52
2023/06/20 01:16:13;;;;;;;12.57;10.98;;;18.50;99.90;;;;;;5057316;28;20055;-55
2023/06/20 01:18:59;;;;;;;15.95;10.65;;;18.50;99.90;;;;;;5051631;28;20057;-52
2023/06/20 01:21:36;;;;;;;13.18;11.02;;;18.40;99.90;;;;;;5057462;28;20041;-52
2023/06/20 01:24:19;;;;;;;14.45;11.32;;;18.40;99.90;;;;;;5053395;28;20387;-52
2023/06/20 01:26:54;;;;;;;15.38;10.93;;;18.40;99.90;;;;;;5061087;28;20033;-55
2023/06/20 01:29:32;;;;;;;13.57;10.48;;;18.40;99.90;;;;;;5068195;28;20040;-54
2023/06/20 01:32:02;;;;;;;12.25;10.95;;;18.30;99.90;;;;;;5063878;28;20497;-52
2023/06/20 01:34:30;;;;;;;12.82;10.60;;;18.30;99.90;;;;;;5069136;28;20093;-52
2023/06/20 01:36:58;;;;;;;14.40;11.02;;;18.40;99.90;;;;;;5069225;28;20044;-52
2023/06/20 01:39:31;;;;;;;16.00;10.32;;;18.40;99.90;;;;;;5069177;28;20040;-52
2023/06/20 01:42:01;;;;;;;27.55;12.48;;;18.30;99.90;;;;;;5061363;28;20033;-55
2023/06/20 01:44:29;;;;;;;12.50;10.95;;;18.30;99.90;;;;;;5052687;28;20115;-55
2023/06/20 01:46:56;;;;;;;14.15;12.32;;;18.30;99.90;;;;;;5060260;28;20294;-56
2023/06/20 01:49:24;;;;;;;15.85;12.43;;;18.30;99.90;;;;;;5053492;28;20037;-52
2023/06/20 01:51:55;;;;;;;14.68;11.60;;;18.30;99.90;;;;;;5057689;28;20036;-54
2023/06/20 01:54:25;;;;;;;16.50;12.35;;;18.30;99.90;;;;;;5068725;28;20066;-55
2023/06/20 01:56:51;;;;;;;16.30;12.63;;;18.30;99.90;;;;;;5063166;28;20112;-52
2023/06/20 01:59:18;;;;;;;16.15;12.50;;;18.40;99.90;;;;;;5058748;28;20191;-53
2023/06/20 02:01:47;;;;;;;17.55;13.13;;;18.30;99.90;;;;;;5056461;28;20064;-52
2023/06/20 02:04:15;;;;;;;15.85;13.02;;;18.30;99.90;;;;;;5068605;28;20111;-52
2023/06/20 02:06:42;;;;;;;15.82;13.65;;;18.30;99.90;;;;;;5065000;28;20047;-52
2023/06/20 02:09:09;;;;;;;17.00;13.40;;;18.30;99.90;;;;;;5051127;28;20430;-54
2023/06/20 02:11:36;;;;;;;18.05;14.70;;;18.30;99.90;;;;;;5060546;28;20052;-52
2023/06/20 02:14:02;;;;;;;19.48;15.68;;;18.40;99.90;;;;;;5069119;28;20063;-54
2023/06/20 02:16:30;;;;;;;22.45;14.60;;;18.30;99.90;;;;;;5057255;28;20033;-52
2023/06/20 02:18:56;;;;;;;17.17;14.88;;;18.30;99.90;;;;;;5067439;28;20044;-54
2023/06/20 02:21:26;;;;;;;19.15;15.52;;;18.30;99.90;;;;;;5065076;28;20098;-52
2023/06/20 02:23:54;;;;;;;19.85;16.00;;;18.30;99.90;;;;;;5059985;28;20032;-56
2023/06/20 02:26:25;;;;;;;19.42;15.77;;;18.30;99.90;;;;;;5065994;28;20036;-53
2023/06/20 02:28:56;;;;;;;15.75;14.07;;;18.30;99.90;;;;;;5065759;28;20436;-52
2023/06/20 02:31:24;;;;;;;19.10;14.80;;;18.30;99.90;;;;;;5065418;28;20037;-54
2023/06/20 02:33:52;;;;;;;24.27;16.58;;;18.30;99.90;;;;;;5050956;28;20036;-52
2023/06/20 02:36:20;;;;;;;22.48;16.50;;;18.20;99.90;;;;;;5052054;28;20033;-54
2023/06/20 02:38:46;;;;;;;20.17;15.68;;;18.20;99.90;;;;;;5051619;28;20068;-53
2023/06/20 02:41:12;;;;;;;24.70;16.05;;;18.20;99.90;;;;;;5061965;28;20413;-55
2023/06/20 02:43:37;;;;;;;17.55;15.07;;;18.20;99.90;;;;;;5051114;28;20556;-53
2023/06/20 02:46:19;;;;;;;19.98;16.50;;;18.20;99.90;;;;;;5068118;28;20044;-52
2023/06/20 02:49:00;;;;;;;22.35;15.82;;;18.30;99.90;;;;;;5050538;28;20037;-56
2023/06/20 02:51:33;;;;;;;19.85;16.42;;;18.20;99.90;;;;;;5056662;28;20407;-54
2023/06/20 02:54:04;;;;;;;19.20;15.75;;;18.30;99.90;;;;;;5050417;28;20398;-54
2023/06/20 02:56:33;;;;;;;20.95;15.95;;;18.30;99.90;;;;;;5065386;28;20036;-52
2023/06/20 02:59:02;;;;;;;23.42;16.83;;;18.20;99.90;;;;;;5049195;28;20052;-52
2023/06/20 03:01:30;;;;;;;19.45;15.95;;;18.30;99.90;;;;;;5058298;28;20052;-52
2023/06/20 03:03:59;;;;;;;24.33;18.10;;;18.20;99.90;;;;;;5050206;28;20045;-52
2023/06/20 03:06:27;;;;;;;22.65;15.60;;;18.20;99.90;;;;;;5050426;28;20505;-52
2023/06/20 03:08:55;;;;;;;19.92;16.05;;;18.30;99.90;;;;;;5064761;28;20032;-52
2023/06/20 03:11:21;;;;;;;21.70;16.73;;;18.20;99.90;;;;;;5061736;28;20036;-52
2023/06/20 03:13:47;;;;;;;21.25;16.52;;;18.20;99.90;;;;;;5054880;28;20367;-54
2023/06/20 03:16:13;;;;;;;18.45;16.10;;;18.20;99.90;;;;;;5050031;28;20116;-52
2023/06/20 03:18:39;;;;;;;18.65;16.75;;;18.20;99.90;;;;;;5061922;28;20040;-51
2023/06/20 03:21:05;;;;;;;18.30;15.40;;;18.20;99.90;;;;;;5057965;28;20504;-52
2023/06/20 03:23:31;;;;;;;19.17;16.65;;;18.20;99.90;;;;;;5059898;28;20127;-52
2023/06/20 03:25:58;;;;;;;20.13;16.25;;;18.30;99.90;;;;;;5057077;28;20470;-52
2023/06/20 03:28:24;;;;;;;18.90;16.83;;;18.20;99.90;;;;;;5052939;28;20048;-52
2023/06/20 03:30:50;;;;;;;22.45;16.73;;;18.30;99.90;;;;;;5066465;28;20067;-55
2023/06/20 03:33:16;;;;;;;;;;;18.20;99.90;;;;;;5060601;28;20128;-52
2023/06/20 03:35:41;;;;;;;25.13;16.52;;;18.30;99.90;;;;;;5067785;28;20011;-53
2023/06/20 03:38:07;;;;;;;21.48;17.20;;;18.30;99.90;;;;;;5056221;28;20052;-53
2023/06/20 03:40:33;;;;;;;24.27;16.48;;;18.30;99.90;;;;;;5068110;28;20059;-52
2023/06/20 03:42:59;;;;;;;23.85;16.85;;;18.30;99.90;;;;;;5066790;28;20083;-52
2023/06/20 03:45:24;;;;;;;23.15;15.90;;;18.20;99.90;;;;;;5067668;28;20044;-53
2023/06/20 03:47:50;;;;;;;19.20;15.20;;;18.20;99.90;;;;;;5049158;28;20045;-53
2023/06/20 03:50:16;;;;;;;19.67;15.90;;;18.20;99.90;;;;;;5055655;28;20032;-53
2023/06/20 03:52:41;;;;;;;24.83;15.75;;;18.20;99.90;;;;;;5053315;28;20406;-52
2023/06/20 03:55:07;;;;;;;27.65;16.48;;;18.30;99.90;;;;;;5067252;28;20032;-52
2023/06/20 03:57:33;;;;;;;;;;;18.20;99.90;;;;;;5065190;28;20052;-52
2023/06/20 03:59:58;;;;;;;17.83;15.93;;;18.20;99.90;;;;;;5051295;28;19917;-52
2023/06/20 04:02:24;;;;;;;19.00;16.50;;;18.20;99.90;;;;;;5049780;28;20042;-55
2023/06/20 04:04:49;;;;;;;16.85;15.05;;;18.20;99.90;;;;;;5050701;28;20104;-52
2023/06/20 04:07:18;;;;;;;23.67;16.45;;;18.30;99.90;;;;;;5050290;28;20387;-53
2023/06/20 04:09:51;;;;;;;20.38;15.38;;;18.30;99.90;;;;;;5061005;28;20037;-53
2023/06/20 04:12:16;;;;;;;20.15;16.60;;;18.30;99.90;;;;;;5066355;28;20040;-54
2023/06/20 04:14:42;;;;;;;21.55;15.63;;;18.30;99.90;;;;;;5055218;28;20055;-52
2023/06/20 04:17:08;;;;;;;20.85;16.23;;;18.30;99.90;;;;;;5051777;28;20068;-51
2023/06/20 04:19:33;;;;;;;19.63;15.48;;;18.30;99.90;;;;;;5060047;28;20037;-53
2023/06/20 04:21:59;;;;;;;20.15;16.30;;;18.30;99.90;;;;;;5067003;28;20091;-51
2023/06/20 04:24:25;;;;;;;18.42;16.33;;;18.30;99.90;;;;;;5060694;28;20102;-55
2023/06/20 04:26:54;;;;;;;22.70;15.93;;;18.30;99.90;;;;;;5066234;28;20024;-53
2023/06/20 04:29:20;;;;;;;19.00;15.18;;;18.30;99.90;;;;;;5061232;28;20037;-57
2023/06/20 04:31:45;;;;;;;19.70;15.65;;;18.30;99.90;;;;;;5049679;28;20029;-53
2023/06/20 04:34:11;;;;;;;19.17;15.88;;;18.30;99.90;;;;;;5055637;28;20039;-52
2023/06/20 04:36:36;;;;;;;35.78;18.35;;;18.30;99.90;;;;;;5058081;28;20037;-52
2023/06/20 04:39:02;;;;;;;23.95;16.10;;;18.30;99.90;;;;;;5054120;28;20048;-56
2023/06/20 04:41:27;;;;;;;19.08;16.38;;;18.30;99.90;;;;;;5067666;28;20459;-52
2023/06/20 04:43:53;;;;;;;23.25;16.30;;;18.40;99.90;;;;;;5062778;28;20037;-52
2023/06/20 04:46:19;;;;;;;19.63;15.27;;;18.40;99.90;;;;;;5049299;28;20052;-52
2023/06/20 04:48:45;;;;;;;22.50;16.33;;;18.40;99.90;;;;;;5049638;28;20466;-54
2023/06/20 04:51:11;;;;;;;22.40;16.20;;;18.40;99.90;;;;;;5050076;28;20421;-53
2023/06/20 04:53:37;;;;;;;18.17;16.27;;;18.40;99.90;;;;;;5052775;28;20044;-52
2023/06/20 04:56:03;;;;;;;19.17;16.63;;;18.40;99.90;;;;;;5066184;28;20499;-52
2023/06/20 04:58:29;;;;;;;24.75;14.50;;;18.40;99.90;;;;;;5070410;28;20150;-52
2023/06/20 05:01:03;;;;;;;27.48;17.42;;;18.50;99.90;;;;;;5056400;28;20790;-53
2023/06/20 05:03:29;;;;;;;19.58;16.73;;;18.50;99.90;;;;;;5060613;28;20063;-55
2023/06/20 05:05:54;;;;;;;23.02;17.48;;;18.60;99.90;;;;;;5059236;28;20115;-53
2023/06/20 05:08:20;;;;;;;19.42;16.00;;;18.60;99.90;;;;;;5060127;28;20078;-52
2023/06/20 05:10:46;;;;;;;17.02;15.35;;;18.60;99.90;;;;;;5061818;28;20033;-54
2023/06/20 05:13:11;;;;;;;18.77;16.58;;;18.70;99.90;;;;;;5059305;28;20079;-52
2023/06/20 05:15:37;;;;;;;18.52;16.60;;;18.70;99.90;;;;;;5061679;28;20341;-53
2023/06/20 05:18:02;;;;;;;;;;;18.70;99.90;;;;;;5070089;28;20035;-52
2023/06/20 05:20:28;;;;;;;20.17;15.77;;;18.80;99.90;;;;;;5060744;28;20434;-53
2023/06/20 05:22:54;;;;;;;21.58;17.48;;;18.80;99.90;;;;;;5052171;28;20421;-52
2023/06/20 05:25:19;;;;;;;21.23;16.95;;;18.80;99.90;;;;;;5058415;28;20048;-52
2023/06/20 05:27:47;;;;;;;;;;;18.90;99.90;;;;;;5063382;28;20037;-55
2023/06/20 05:30:13;;;;;;;18.95;16.95;;;18.90;99.90;;;;;;5057884;28;20003;-55
2023/06/20 05:32:38;;;;;;;23.42;18.25;;;18.90;99.90;;;;;;5069521;28;20159;-52
2023/06/20 05:35:07;;;;;;;22.33;17.52;;;18.90;99.90;;;;;;5064483;28;20045;-52
2023/06/20 05:37:34;;;;;;;22.50;17.30;;;18.90;99.90;;;;;;5063318;28;20036;-55
2023/06/20 05:39:59;;;;;;;19.77;16.88;;;18.90;99.90;;;;;;5061596;28;20045;-53
2023/06/20 05:42:25;;;;;;;21.10;17.58;;;18.90;99.90;;;;;;5062005;28;20052;-52
2023/06/20 05:44:50;;;;;;;;;;;19.00;99.90;;;;;;5065188;28;20053;-55
2023/06/20 05:47:19;;;;;;;19.67;16.50;;;19.00;99.90;;;;;;5066659;28;20392;-55
2023/06/20 05:49:48;;;;;;;19.73;14.68;;;19.10;99.90;;;;;;5053981;28;20123;-52
2023/06/20 05:52:14;;;;;;;23.88;15.25;;;19.10;99.90;;;;;;5051800;28;20033;-52
2023/06/20 05:54:43;;;;;;;16.52;14.25;;;19.10;99.90;;;;;;5052658;28;20032;-52
2023/06/20 05:57:08;;;;;;;20.92;16.20;;;19.20;99.90;;;;;;5069464;28;20028;-52
2023/06/20 05:59:34;;;;;;;18.50;15.80;;;19.20;99.90;;;;;;5057893;28;20091;-56
2023/06/20 06:02:00;;;;;;;16.70;14.13;;;19.20;99.90;;;;;;5063710;28;20496;-51
2023/06/20 06:04:26;;;;;;;15.65;13.82;;;19.30;99.90;;;;;;5056537;28;20112;-49
2023/06/20 06:06:52;;;;;;;17.08;13.85;;;19.30;99.90;;;;;;5066045;28;20054;-49
2023/06/20 06:09:17;;;;;;;;;;;19.30;99.90;;;;;;5067047;28;20040;-50
2023/06/20 06:11:43;;;;;;;15.57;13.77;;;19.40;99.90;;;;;;5056479;28;19917;-53
2023/06/20 06:14:09;;;;;;;;;;;19.40;99.90;;;;;;5064916;28;20485;-55
2023/06/20 06:16:35;;;;;;;24.70;14.98;;;19.50;99.90;;;;;;5067480;28;19967;-54
2023/06/20 06:19:00;;;;;;;44.38;16.55;;;19.50;99.90;;;;;;5066628;28;20076;-53
2023/06/20 06:21:26;;;;;;;18.50;15.13;;;19.50;99.90;;;;;;5064544;28;20071;-52
2023/06/20 06:23:52;;;;;;;;;;;19.50;99.90;;;;;;5055808;28;20122;-54
2023/06/20 06:26:18;;;;;;;20.60;15.48;;;19.50;99.90;;;;;;5063977;28;19998;-52
2023/06/20 06:28:43;;;;;;;15.57;13.88;;;19.50;99.90;;;;;;5056074;28;20029;-54
2023/06/20 06:31:11;;;;;;;17.90;16.00;;;19.60;99.90;;;;;;5058261;28;20127;-52
2023/06/20 06:33:37;;;;;;;18.35;15.40;;;19.60;99.90;;;;;;5059638;28;20486;-54
2023/06/20 06:36:03;;;;;;;18.50;15.18;;;19.60;99.90;;;;;;5053853;28;20075;-54
2023/06/20 06:38:29;;;;;;;16.85;14.98;;;19.60;99.90;;;;;;5059419;28;20567;-55
2023/06/20 06:40:56;;;;;;;21.73;15.82;;;19.60;99.90;;;;;;5055036;28;20144;-52
2023/06/20 06:43:22;;;;;;;17.42;15.65;;;19.60;99.90;;;;;;5054105;28;20049;-52
2023/06/20 06:45:48;;;;;;;21.08;14.82;;;19.60;99.90;;;;;;5056686;28;20320;-55
2023/06/20 06:48:13;;;;;;;17.45;15.10;;;19.60;99.90;;;;;;5062505;28;20414;-52
2023/06/20 06:50:39;;;;;;;;;;;19.70;99.90;;;;;;5062602;28;20036;-53
2023/06/20 06:53:04;;;;;;;23.00;16.98;;;19.70;99.90;;;;;;5052522;28;19923;-54
2023/06/20 06:55:30;;;;;;;;;;;19.70;99.90;;;;;;5054804;28;20119;-52
2023/06/20 06:57:55;;;;;;;17.33;15.50;;;19.70;99.90;;;;;;5059231;28;19927;-54
2023/06/20 07:00:21;;;;;;;;;;;19.70;99.90;;;;;;5057260;28;20047;-54
2023/06/20 07:02:47;;;;;;;19.58;16.00;;;19.70;99.90;;;;;;5045713;28;20018;-54
2023/06/20 07:05:12;;;;;;;21.00;17.05;;;19.70;99.90;;;;;;5052289;28;20043;-54
2023/06/20 07:07:38;;;;;;;18.45;16.67;;;19.70;99.90;;;;;;5049211;28;20201;-55
2023/06/20 07:10:04;;;;;;;;;;;19.70;99.90;;;;;;5059789;28;20032;-56
2023/06/20 07:12:29;;;;;;;33.58;17.10;;;19.80;99.90;;;;;;5052696;28;19916;-52
2023/06/20 07:14:56;;;;;;;;;;;19.80;99.90;;;;;;5052717;28;20040;-52
2023/06/20 07:17:25;;;;;;;24.42;15.30;;;19.90;99.90;;;;;;5050226;28;19924;-54
2023/06/20 07:19:52;;;;;;;154.73;27.65;;;19.80;99.90;;;;;;5049339;28;20408;-54
2023/06/20 07:22:19;;;;;;;271.90;39.30;;;19.90;99.90;;;;;;5050068;28;20043;-50
2023/06/20 07:24:44;;;;;;;27.38;16.60;;;19.90;99.90;;;;;;5052786;28;20035;-49
2023/06/20 07:27:10;;;;;;;26.17;15.95;;;19.90;99.90;;;;;;5053134;28;20037;-50
2023/06/20 07:29:36;;;;;;;;;;;20.00;99.90;;;;;;5051260;28;20033;-56
2023/06/20 07:32:02;;;;;;;21.85;15.70;;;20.00;99.90;;;;;;5049383;28;20298;-56
2023/06/20 07:34:28;;;;;;;34.50;16.50;;;20.00;99.90;;;;;;5050605;28;20612;-51
2023/06/20 07:36:54;;;;;;;;;;;20.20;99.90;;;;;;5052230;28;20052;-50
2023/06/20 07:39:19;;;;;;;22.65;17.08;;;20.20;99.90;;;;;;5050552;28;20345;-54
2023/06/20 07:41:45;;;;;;;;;;;20.30;99.90;;;;;;5053358;28;20047;-52
2023/06/20 07:44:11;;;;;;;17.80;15.95;;;20.30;99.90;;;;;;5050745;28;20265;-56
2023/06/20 07:46:39;;;;;;;26.67;17.55;;;20.40;99.90;;;;;;5052520;28;20120;-52
2023/06/20 07:49:04;;;;;;;20.48;15.93;;;20.40;99.90;;;;;;5054052;28;20055;-54
2023/06/20 07:51:31;;;;;;;;;;;20.50;99.90;;;;;;5044848;28;20200;-51
2023/06/20 07:53:56;;;;;;;17.80;15.88;;;20.60;99.90;;;;;;5047704;28;20397;-52
2023/06/20 07:56:22;;;;;;;;;;;20.70;99.90;;;;;;5053674;28;20040;-56
2023/06/20 07:58:47;;;;;;;19.02;15.63;;;20.80;99.90;;;;;;5051745;28;20016;-55
2023/06/20 08:01:13;;;;;;;;;;;20.90;99.90;;;;;;5053959;28;20543;-51
2023/06/20 08:03:39;;;;;;;19.77;16.83;;;20.90;99.90;;;;;;5053390;28;19956;-54
2023/06/20 08:06:04;;;;;;;;;;;21.00;99.90;;;;;;5054831;28;20564;-56
2023/06/20 08:08:30;;;;;;;20.38;16.98;;;21.20;99.90;;;;;;5050340;28;19928;-58
2023/06/20 08:10:55;;;;;;;;;;;21.30;99.90;;;;;;5048611;28;20533;-56
2023/06/20 08:13:21;;;;;;;18.95;17.10;;;21.40;99.90;;;;;;5048274;28;19927;-52
2023/06/20 08:15:47;;;;;;;;;;;21.50;99.90;;;;;;5049672;28;20032;-52
2023/06/20 08:18:12;;;;;;;17.50;15.80;;;21.60;99.90;;;;;;5056558;28;20241;-55
2023/06/20 08:20:38;;;;;;;;;;;21.70;99.90;;;;;;5049842;28;20064;-52
2023/06/20 08:23:03;;;;;;;26.73;16.92;;;21.70;99.90;;;;;;5047191;28;19917;-58
2023/06/20 08:25:29;;;;;;;;;;;21.80;99.90;;;;;;5048730;28;20032;-55
2023/06/20 08:27:54;;;;;;;18.83;16.42;;;22.00;99.90;;;;;;5053983;28;20293;-51
2023/06/20 08:30:20;;;;;;;;;;;22.10;99.90;;;;;;5058406;28;20036;-54
2023/06/20 08:32:45;;;;;;;20.88;15.95;;;22.20;99.90;;;;;;5035347;28;19917;-52
2023/06/20 08:35:11;;;;;;;;;;;22.30;99.90;;;;;;5051261;28;20487;-58
2023/06/20 08:37:37;;;;;;;18.73;15.15;;;22.30;99.90;;;;;;5046231;28;20397;-53
2023/06/20 08:40:08;;;;;;;16.27;13.55;;;22.40;99.90;;;;;;5055605;28;20525;-55
2023/06/20 08:42:33;;;;;;;19.02;12.80;;;22.50;99.90;;;;;;5054419;28;20048;-55
2023/06/20 08:44:59;;;;;;;;;;;22.80;99.90;;;;;;5057343;28;20036;-59
2023/06/20 08:47:25;;;;;;;15.02;13.18;;;23.00;99.90;;;;;;5052646;28;19924;-56
2023/06/20 08:49:51;;;;;;;18.98;12.40;;;23.20;99.90;;;;;;5055965;28;20389;-52
2023/06/20 08:52:18;;;;;;;;;;;23.40;99.90;;;;;;5054704;28;20033;-52
2023/06/20 08:54:44;;;;;;;14.30;12.43;;;23.50;99.90;;;;;;5056023;28;20432;-55
2023/06/20 08:57:10;;;;;;;12.45;10.27;;;23.60;99.90;;;;;;5049934;28;20128;-57
2023/06/20 08:59:36;;;;;;;;;;;23.70;99.90;;;;;;5055460;28;20123;-56
2023/06/20 09:02:03;;;;;;;12.13;11.02;;;23.80;99.90;;;;;;5052051;28;19959;-55
2023/06/20 09:04:29;;;;;;;23.02;11.18;;;23.90;99.90;;;;;;5051711;28;20446;-56
2023/06/20 09:06:54;;;;;;;14.65;11.07;;;24.00;99.90;;;;;;5052458;28;20488;-56
2023/06/20 09:09:21;;;;;;;10.93;9.80;;;24.10;99.90;;;;;;5052111;28;20071;-58
2023/06/20 09:11:52;;;;;;;11.15;9.32;;;24.20;99.90;;;;;;5054177;28;20481;-55
2023/06/20 09:14:18;;;;;;;11.45;10.35;;;24.30;99.90;;;;;;5053958;28;20040;-52
2023/06/20 09:16:47;;;;;;;131.55;15.48;;;24.40;99.80;;;;;;5054048;28;20170;-57
2023/06/20 09:19:13;;;;;;;233.45;27.45;;;24.50;99.40;;;;;;5054159;28;20067;-51
2023/06/20 09:21:39;;;;;;;23.08;10.80;;;24.70;99.30;;;;;;5055737;28;20044;-54
2023/06/20 09:24:06;;;;;;;24.60;9.88;;;24.70;98.60;;;;;;5053458;28;20110;-59
2023/06/20 09:26:32;;;;;;;8.45;7.75;;;24.80;98.40;;;;;;5052146;28;20037;-58
2023/06/20 09:29:09;;;;;;;9.70;8.85;;;24.90;97.90;;;;;;5054575;28;20032;-56
2023/06/20 09:31:48;;;;;;;18.33;9.10;;;25.00;97.50;;;;;;5054285;28;20117;-56
2023/06/20 09:34:16;;;;;;;12.88;7.50;;;25.10;97.90;;;;;;5052619;28;20032;-56
2023/06/20 09:36:42;;;;;;;7.45;6.80;;;25.20;97.80;;;;;;5052044;28;20029;-55
2023/06/20 09:39:12;;;;;;;7.28;6.57;;;25.30;96.70;;;;;;5051322;28;20037;-57
2023/06/20 09:41:49;;;;;;;32.10;6.93;;;25.30;96.80;;;;;;5054699;28;20422;-54
2023/06/20 09:44:16;;;;;;;6.20;5.70;;;25.50;95.60;;;;;;5052478;28;20037;-54
2023/06/20 09:46:42;;;;;;;5.43;5.03;;;25.50;95.50;;;;;;5054740;28;20041;-59
2023/06/20 09:49:11;;;;;;;5.45;4.95;;;25.50;94.70;;;;;;5053219;28;20171;-54
2023/06/20 09:51:50;;;;;;;5.95;5.32;;;25.70;94.80;;;;;;5052606;28;20872;-54
2023/06/20 09:54:51;;;;;;;5.20;4.82;;;25.60;94.10;;;;;;5053045;28;20040;-55
2023/06/20 09:57:22;;;;;;;6.60;5.70;;;25.80;95.30;;;;;;5021047;28;20069;-54
2023/06/20 09:59:50;;;;;;;6.00;5.05;;;26.00;94.80;;;;;;5051533;28;20045;-57
2023/06/20 10:02:18;;;;;;;9.60;4.85;;;26.00;93.90;;;;;;5049641;28;20044;-58
2023/06/20 10:04:45;;;;;;;6.03;5.38;;;26.10;94.00;;;;;;5050316;28;20025;-52
2023/06/20 10:07:14;;;;;;;5.93;5.28;;;26.20;93.90;;;;;;5051008;28;20124;-59
2023/06/20 10:09:41;;;;;;;5.18;4.47;;;26.30;93.50;;;;;;5053780;28;20041;-55
2023/06/20 10:12:09;;;;;;;5.43;4.68;;;26.30;93.30;;;;;;5051842;28;20040;-55
2023/06/20 10:14:35;;;;;;;302.45;27.88;;;26.30;93.20;;;;;;5054403;28;20033;-55
2023/06/20 10:17:08;;;;;;;7.10;6.30;;;26.20;93.10;;;;;;5053843;28;20037;-57
2023/06/20 10:19:50;;;;;;;12.80;5.63;;;26.20;92.90;;;;;;5049320;28;20037;-55
2023/06/20 10:22:41;;;;;;;7.18;5.97;;;26.20;92.90;;;;;;5052958;28;20437;-52
2023/06/20 10:25:14;;;;;;;8.38;7.20;;;26.10;92.90;;;;;;5050459;28;20051;-55
2023/06/20 10:27:59;;;;;;;6.20;5.60;;;26.00;92.70;;;;;;5052183;28;20037;-57
2023/06/20 10:30:46;;;;;;;6.55;5.95;;;26.00;93.00;;;;;;5051352;28;20041;-57
2023/06/20 10:33:13;;;;;;;7.75;6.28;;;26.00;93.20;;;;;;5056021;28;20609;-53
2023/06/20 10:35:57;;;;;;;7.40;6.45;;;25.90;93.00;;;;;;5051866;28;20076;-58
2023/06/20 10:38:26;;;;;;;13.32;6.78;;;25.90;93.10;;;;;;5052206;28;20099;-54
2023/06/20 10:41:14;;;;;;;7.80;7.20;;;25.90;93.30;;;;;;5056818;28;20032;-57
2023/06/20 10:43:54;;;;;;;7.60;6.95;;;25.90;93.20;;;;;;5052569;28;20029;-56
2023/06/20 10:46:22;;;;;;;7.22;6.63;;;26.00;92.90;;;;;;5052035;28;20064;-52
2023/06/20 10:48:48;;;;;;;10.52;5.38;;;26.00;93.00;;;;;;5053771;28;20079;-56
2023/06/20 10:51:14;;;;;;;6.35;5.50;;;26.20;93.70;;;;;;5054570;28;20474;-53
2023/06/20 10:53:39;;;;;;;7.00;6.40;;;26.30;93.40;;;;;;5052667;28;20086;-54
2023/06/20 10:56:05;;;;;;;7.78;7.03;;;26.40;93.20;;;;;;5051570;28;20242;-52
2023/06/20 10:58:30;;;;;;;11.05;8.15;;;26.50;92.60;;;;;;5053983;28;20150;-56
2023/06/20 11:00:56;;;;;;;7.68;6.97;;;26.60;92.30;;;;;;5054871;28;20039;-59
2023/06/20 11:03:25;;;;;;;7.00;6.32;;;26.60;92.20;;;;;;5049461;28;20090;-52
2023/06/20 11:05:54;;;;;;;8.52;7.63;;;26.70;91.90;;;;;;5047205;28;20051;-55
2023/06/20 11:08:26;;;;;;;7.43;6.60;;;26.90;91.90;;;;;;5050301;28;20064;-55
2023/06/20 11:10:53;;;;;;;9.05;7.07;;;27.00;91.90;;;;;;5051648;28;20104;-54
2023/06/20 11:13:19;;;;;;;10.35;5.63;;;27.00;92.20;;;;;;5055401;28;20888;-53
2023/06/20 11:15:46;;;;;;;7.40;6.63;;;27.10;92.10;;;;;;5052481;28;20303;-52
2023/06/20 11:18:11;;;;;;;6.07;5.45;;;27.30;91.00;;;;;;5050628;28;20041;-59
2023/06/20 11:20:39;;;;;;;7.22;6.25;;;27.40;91.30;;;;;;5052592;28;20041;-51
2023/06/20 11:23:07;;;;;;;7.25;6.55;;;27.40;90.70;;;;;;5046882;28;20489;-55
2023/06/20 11:25:34;;;;;;;8.05;7.35;;;27.50;90.50;;;;;;5050054;28;20037;-52
2023/06/20 11:28:06;;;;;;;8.52;6.45;;;27.60;90.50;;;;;;5051363;28;20051;-58
2023/06/20 11:30:33;;;;;;;7.95;7.00;;;27.70;90.50;;;;;;5051447;28;20024;-57
2023/06/20 11:33:08;;;;;;;8.07;7.22;;;27.80;90.60;;;;;;5049938;28;20039;-53
2023/06/20 11:35:49;;;;;;;7.63;6.13;;;27.80;90.70;;;;;;5047468;28;20043;-52
2023/06/20 11:38:25;;;;;;;5.50;5.10;;;27.90;90.20;;;;;;5047848;28;20136;-58
2023/06/20 11:41:03;;;;;;;5.63;4.63;;;27.90;90.50;;;;;;5051602;28;20825;-54
2023/06/20 11:43:38;;;;;;;25.33;6.25;;;27.90;89.60;;;;;;5048384;28;20040;-56
2023/06/20 11:46:04;;;;;;;30.25;6.18;;;27.80;87.40;;;;;;5053247;28;20341;-52
2023/06/20 11:48:30;;;;;;;15.02;4.90;;;27.60;88.00;;;;;;5049232;28;20505;-57
2023/06/20 11:50:59;;;;;;;5.32;4.57;;;27.50;88.20;;;;;;5049808;28;20035;-57
2023/06/20 11:53:32;;;;;;;4.97;4.28;;;27.40;87.80;;;;;;5031720;28;20040;-56
2023/06/20 11:56:08;;;;;;;5.22;4.43;;;27.40;87.60;;;;;;5053482;28;20818;-57
2023/06/20 11:58:38;;;;;;;;;;;27.50;88.80;;;;;;5049934;28;20118;-56
2023/06/20 12:01:17;;;;;;;4.88;4.32;;;27.70;88.50;;;;;;5054449;28;19916;-57
2023/06/20 12:03:44;;;;;;;5.90;5.43;;;27.70;88.90;;;;;;5059447;28;20040;-58
2023/06/20 12:06:28;;;;;;;5.90;5.43;;;27.70;87.70;;;;;;5054430;28;20043;-58
2023/06/20 12:08:59;;;;;;;5.20;4.78;;;27.50;88.00;;;;;;5053635;28;20616;-53
2023/06/20 12:11:27;;;;;;;6.07;5.47;;;27.40;88.40;;;;;;5051403;28;20048;-59
2023/06/20 12:13:53;;;;;;;52.50;6.32;;;27.40;88.30;;;;;;5055350;28;20419;-55
2023/06/20 12:16:19;;;;;;;8.32;5.50;;;27.40;89.20;;;;;;5052308;28;20033;-53
2023/06/20 12:18:46;;;;;;;6.03;4.80;;;27.40;88.60;;;;;;5055755;28;20677;-59
2023/06/20 12:21:12;;;;;;;5.85;5.20;;;27.40;89.10;;;;;;5051598;28;20048;-56
2023/06/20 12:23:37;;;;;;;8.25;5.10;;;27.30;89.00;;;;;;5054403;28;20036;-60
2023/06/20 12:26:03;;;;;;;5.55;5.07;;;27.30;88.60;;;;;;5051572;28;20473;-54
2023/06/20 12:28:29;;;;;;;6.05;5.38;;;27.20;89.30;;;;;;5053307;28;20041;-56
2023/06/20 12:30:54;;;;;;;4.45;4.15;;;27.10;89.10;;;;;;5052416;28;20075;-57
2023/06/20 12:33:20;;;;;;;6.88;4.03;;;27.10;89.40;;;;;;5053609;28;20029;-59
2023/06/20 12:35:45;;;;;;;4.65;4.25;;;27.00;89.40;;;;;;5050923;28;20502;-60
2023/06/20 12:38:11;;;;;;;5.40;4.22;;;27.00;89.10;;;;;;5052849;28;20029;-59
2023/06/20 12:40:37;;;;;;;4.53;3.92;;;27.10;89.70;;;;;;5047773;28;20033;-57
2023/06/20 12:43:03;;;;;;;6.10;3.80;;;27.20;88.90;;;;;;5055016;28;20497;-56
2023/06/20 12:45:28;;;;;;;4.47;4.07;;;27.20;88.90;;;;;;5055596;28;20065;-56
2023/06/20 12:47:54;;;;;;;4.18;3.55;;;27.30;89.20;;;;;;5049480;28;20032;-55